sensor_id;sensor_type;location;lat;lon;timestamp;temperature;humidity
66722;SHT31;53633;49.932;10.884;2023-12-29T00:00:28;9.30;89.04
66722;SHT31;53633;49.932;10.884;2023-12-29T00:02:55;9.30;89.15
66722;SHT31;53633;49.932;10.884;2023-12-29T00:05:22;9.31;89.27
66722;SHT31;53633;49.932;10.884;2023-12-29T00:07:55;9.27;89.39
66722;SHT31;53633;49.932;10.884;2023-12-29T00:10:22;9.26;89.46
66722;SHT31;53633;49.932;10.884;2023-12-29T00:12:49;9.26;89.46
66722;SHT31;53633;49.932;10.884;2023-12-29T00:15:18;9.26;89.43
66722;SHT31;53633;49.932;10.884;2023-12-29T00:17:45;9.24;89.26
66722;SHT31;53633;49.932;10.884;2023-12-29T00:20:14;9.28;89.19
66722;SHT31;53633;49.932;10.884;2023-12-29T00:23:00;9.30;89.07
66722;SHT31;53633;49.932;10.884;2023-12-29T00:25:27;9.33;88.98
66722;SHT31;53633;49.932;10.884;2023-12-29T00:27:55;9.27;89.12
66722;SHT31;53633;49.932;10.884;2023-12-29T00:30:22;9.26;89.28
66722;SHT31;53633;49.932;10.884;2023-12-29T00:32:49;9.26;89.46
66722;SHT31;53633;49.932;10.884;2023-12-29T00:35:16;9.27;89.71
66722;SHT31;53633;49.932;10.884;2023-12-29T00:40:30;9.28;89.79
66722;SHT31;53633;49.932;10.884;2023-12-29T00:42:57;9.27;89.82
66722;SHT31;53633;49.932;10.884;2023-12-29T00:45:24;9.27;89.73
66722;SHT31;53633;49.932;10.884;2023-12-29T00:47:51;9.23;89.76
66722;SHT31;53633;49.932;10.884;2023-12-29T00:50:18;9.20;89.72
66722;SHT31;53633;49.932;10.884;2023-12-29T00:52:45;9.22;89.68
66722;SHT31;53633;49.932;10.884;2023-12-29T00:55:12;9.23;89.61
66722;SHT31;53633;49.932;10.884;2023-12-29T00:57:40;9.22;89.63
66722;SHT31;53633;49.932;10.884;2023-12-29T01:00:10;9.17;89.78
66722;SHT31;53633;49.932;10.884;2023-12-29T01:02:40;9.17;89.73
66722;SHT31;53633;49.932;10.884;2023-12-29T01:05:14;9.17;89.55
66722;SHT31;53633;49.932;10.884;2023-12-29T01:07:41;9.15;89.42
66722;SHT31;53633;49.932;10.884;2023-12-29T01:10:10;9.16;89.52
66722;SHT31;53633;49.932;10.884;2023-12-29T01:12:37;9.17;89.35
66722;SHT31;53633;49.932;10.884;2023-12-29T01:15:15;9.16;89.24
66722;SHT31;53633;49.932;10.884;2023-12-29T01:17:45;9.17;89.25
66722;SHT31;53633;49.932;10.884;2023-12-29T01:20:12;9.22;88.97
66722;SHT31;53633;49.932;10.884;2023-12-29T01:22:39;9.20;88.79
66722;SHT31;53633;49.932;10.884;2023-12-29T01:25:08;9.23;88.85
66722;SHT31;53633;49.932;10.884;2023-12-29T01:27:38;9.24;88.82
66722;SHT31;53633;49.932;10.884;2023-12-29T01:30:07;9.26;88.61
66722;SHT31;53633;49.932;10.884;2023-12-29T01:32:36;9.24;88.57
66722;SHT31;53633;49.932;10.884;2023-12-29T01:35:04;9.24;88.48
66722;SHT31;53633;49.932;10.884;2023-12-29T01:37:32;9.27;88.32
66722;SHT31;53633;49.932;10.884;2023-12-29T01:39:59;9.30;88.14
66722;SHT31;53633;49.932;10.884;2023-12-29T01:42:26;9.27;88.21
66722;SHT31;53633;49.932;10.884;2023-12-29T01:44:53;9.27;88.20
66722;SHT31;53633;49.932;10.884;2023-12-29T01:47:22;9.27;88.19
66722;SHT31;53633;49.932;10.884;2023-12-29T01:49:50;9.27;88.01
66722;SHT31;53633;49.932;10.884;2023-12-29T01:52:21;9.24;88.10
66722;SHT31;53633;49.932;10.884;2023-12-29T01:54:50;9.27;88.17
66722;SHT31;53633;49.932;10.884;2023-12-29T01:57:18;9.24;87.99
66722;SHT31;53633;49.932;10.884;2023-12-29T01:59:46;9.24;88.04
66722;SHT31;53633;49.932;10.884;2023-12-29T02:02:13;9.26;88.04
66722;SHT31;53633;49.932;10.884;2023-12-29T02:04:41;9.20;88.11
66722;SHT31;53633;49.932;10.884;2023-12-29T02:07:09;9.19;88.07
66722;SHT31;53633;49.932;10.884;2023-12-29T02:09:38;9.19;88.09
66722;SHT31;53633;49.932;10.884;2023-12-29T02:12:05;9.16;88.06
66722;SHT31;53633;49.932;10.884;2023-12-29T02:14:32;9.09;88.15
66722;SHT31;53633;49.932;10.884;2023-12-29T02:17:06;9.06;88.19
66722;SHT31;53633;49.932;10.884;2023-12-29T02:19:37;9.06;88.21
66722;SHT31;53633;49.932;10.884;2023-12-29T02:22:09;9.03;88.28
66722;SHT31;53633;49.932;10.884;2023-12-29T02:24:38;8.96;88.36
66722;SHT31;53633;49.932;10.884;2023-12-29T02:27:12;8.92;88.29
66722;SHT31;53633;49.932;10.884;2023-12-29T02:29:47;8.89;88.36
66722;SHT31;53633;49.932;10.884;2023-12-29T02:32:18;8.88;88.49
66722;SHT31;53633;49.932;10.884;2023-12-29T02:34:47;8.79;88.63
66722;SHT31;53633;49.932;10.884;2023-12-29T02:37:20;8.76;88.75
66722;SHT31;53633;49.932;10.884;2023-12-29T02:39:47;8.71;88.79
66722;SHT31;53633;49.932;10.884;2023-12-29T02:42:16;8.65;88.90
66722;SHT31;53633;49.932;10.884;2023-12-29T02:44:43;8.67;88.98
66722;SHT31;53633;49.932;10.884;2023-12-29T02:47:11;8.67;89.12
66722;SHT31;53633;49.932;10.884;2023-12-29T02:49:38;8.62;89.06
66722;SHT31;53633;49.932;10.884;2023-12-29T02:52:06;8.60;89.06
66722;SHT31;53633;49.932;10.884;2023-12-29T02:54:33;8.60;89.25
66722;SHT31;53633;49.932;10.884;2023-12-29T02:57:02;8.57;89.33
66722;SHT31;53633;49.932;10.884;2023-12-29T02:59:48;8.54;89.38
66722;SHT31;53633;49.932;10.884;2023-12-29T03:02:15;8.51;89.54
66722;SHT31;53633;49.932;10.884;2023-12-29T03:04:45;8.52;89.66
66722;SHT31;53633;49.932;10.884;2023-12-29T03:07:12;8.51;89.79
66722;SHT31;53633;49.932;10.884;2023-12-29T03:09:39;8.48;89.79
66722;SHT31;53633;49.932;10.884;2023-12-29T03:12:06;8.52;89.89
66722;SHT31;53633;49.932;10.884;2023-12-29T03:14:33;8.55;89.82
66722;SHT31;53633;49.932;10.884;2023-12-29T03:17:03;8.57;89.79
66722;SHT31;53633;49.932;10.884;2023-12-29T03:19:31;8.57;89.82
66722;SHT31;53633;49.932;10.884;2023-12-29T03:21:58;8.58;89.84
66722;SHT31;53633;49.932;10.884;2023-12-29T03:24:28;8.58;89.84
66722;SHT31;53633;49.932;10.884;2023-12-29T03:26:55;8.60;89.85
66722;SHT31;53633;49.932;10.884;2023-12-29T03:29:22;8.58;89.83
66722;SHT31;53633;49.932;10.884;2023-12-29T03:31:49;8.60;89.78
66722;SHT31;53633;49.932;10.884;2023-12-29T03:34:18;8.58;89.75
66722;SHT31;53633;49.932;10.884;2023-12-29T03:36:45;8.60;89.57
66722;SHT31;53633;49.932;10.884;2023-12-29T03:39:21;8.58;89.51
66722;SHT31;53633;49.932;10.884;2023-12-29T03:41:48;8.54;89.49
66722;SHT31;53633;49.932;10.884;2023-12-29T03:44:16;8.57;89.50
66722;SHT31;53633;49.932;10.884;2023-12-29T03:46:43;8.57;89.28
66722;SHT31;53633;49.932;10.884;2023-12-29T03:49:10;8.54;89.22
66722;SHT31;53633;49.932;10.884;2023-12-29T03:51:38;8.54;89.16
66722;SHT31;53633;49.932;10.884;2023-12-29T03:54:09;8.52;89.03
66722;SHT31;53633;49.932;10.884;2023-12-29T03:56:37;8.48;89.08
66722;SHT31;53633;49.932;10.884;2023-12-29T03:59:05;8.44;89.16
66722;SHT31;53633;49.932;10.884;2023-12-29T04:01:34;8.44;89.30
66722;SHT31;53633;49.932;10.884;2023-12-29T04:04:01;8.44;89.37
66722;SHT31;53633;49.932;10.884;2023-12-29T04:06:29;8.45;89.40
66722;SHT31;53633;49.932;10.884;2023-12-29T04:08:58;8.45;89.39
66722;SHT31;53633;49.932;10.884;2023-12-29T04:11:25;8.45;89.25
66722;SHT31;53633;49.932;10.884;2023-12-29T04:13:52;8.48;89.12
66722;SHT31;53633;49.932;10.884;2023-12-29T04:16:19;8.44;89.09
66722;SHT31;53633;49.932;10.884;2023-12-29T04:18:46;8.45;88.95
66722;SHT31;53633;49.932;10.884;2023-12-29T04:21:15;8.45;88.77
66722;SHT31;53633;49.932;10.884;2023-12-29T04:23:43;8.45;88.58
66722;SHT31;53633;49.932;10.884;2023-12-29T04:26:12;8.41;88.52
66722;SHT31;53633;49.932;10.884;2023-12-29T04:28:39;8.44;88.42
66722;SHT31;53633;49.932;10.884;2023-12-29T04:31:06;8.42;88.39
66722;SHT31;53633;49.932;10.884;2023-12-29T04:33:34;8.42;88.52
66722;SHT31;53633;49.932;10.884;2023-12-29T04:36:01;8.42;88.48
66722;SHT31;53633;49.932;10.884;2023-12-29T04:38:28;8.38;88.57
66722;SHT31;53633;49.932;10.884;2023-12-29T04:40:58;8.34;88.55
66722;SHT31;53633;49.932;10.884;2023-12-29T04:43:27;8.34;88.65
66722;SHT31;53633;49.932;10.884;2023-12-29T04:45:53;8.33;88.59
66722;SHT31;53633;49.932;10.884;2023-12-29T04:48:24;8.26;88.71
66722;SHT31;53633;49.932;10.884;2023-12-29T04:50:51;8.26;88.73
66722;SHT31;53633;49.932;10.884;2023-12-29T04:53:18;8.24;88.66
66722;SHT31;53633;49.932;10.884;2023-12-29T04:55:46;8.23;88.72
66722;SHT31;53633;49.932;10.884;2023-12-29T04:58:16;8.24;88.38
66722;SHT31;53633;49.932;10.884;2023-12-29T05:03:32;8.24;87.68
66722;SHT31;53633;49.932;10.884;2023-12-29T05:06:02;8.22;87.33
66722;SHT31;53633;49.932;10.884;2023-12-29T05:08:29;8.17;87.25
66722;SHT31;53633;49.932;10.884;2023-12-29T05:10:56;8.16;87.13
66722;SHT31;53633;49.932;10.884;2023-12-29T05:13:23;8.17;87.06
66722;SHT31;53633;49.932;10.884;2023-12-29T05:15:50;8.12;86.86
66722;SHT31;53633;49.932;10.884;2023-12-29T05:18:18;8.12;86.79
66722;SHT31;53633;49.932;10.884;2023-12-29T05:20:47;8.16;86.74
66722;SHT31;53633;49.932;10.884;2023-12-29T05:23:17;8.13;86.75
66722;SHT31;53633;49.932;10.884;2023-12-29T05:25:45;8.13;86.86
66722;SHT31;53633;49.932;10.884;2023-12-29T05:28:14;8.14;86.82
66722;SHT31;53633;49.932;10.884;2023-12-29T05:30:44;8.10;86.36
66722;SHT31;53633;49.932;10.884;2023-12-29T05:33:12;8.10;86.24
66722;SHT31;53633;49.932;10.884;2023-12-29T05:35:39;8.14;86.18
66722;SHT31;53633;49.932;10.884;2023-12-29T05:38:07;8.16;86.07
66722;SHT31;53633;49.932;10.884;2023-12-29T05:40:35;8.13;85.75
66722;SHT31;53633;49.932;10.884;2023-12-29T05:43:02;8.09;85.48
66722;SHT31;53633;49.932;10.884;2023-12-29T05:45:29;8.13;85.47
66722;SHT31;53633;49.932;10.884;2023-12-29T05:47:56;8.07;85.25
66722;SHT31;53633;49.932;10.884;2023-12-29T05:50:23;8.07;84.68
66722;SHT31;53633;49.932;10.884;2023-12-29T05:52:50;8.07;84.43
66722;SHT31;53633;49.932;10.884;2023-12-29T05:55:23;8.07;84.56
66722;SHT31;53633;49.932;10.884;2023-12-29T05:57:51;8.06;84.37
66722;SHT31;53633;49.932;10.884;2023-12-29T06:00:18;8.06;84.14
66722;SHT31;53633;49.932;10.884;2023-12-29T06:02:49;8.09;83.99
66722;SHT31;53633;49.932;10.884;2023-12-29T06:05:16;8.07;83.83
66722;SHT31;53633;49.932;10.884;2023-12-29T06:07:43;8.06;83.81
66722;SHT31;53633;49.932;10.884;2023-12-29T06:10:12;8.06;83.55
66722;SHT31;53633;49.932;10.884;2023-12-29T06:12:45;8.02;83.61
66722;SHT31;53633;49.932;10.884;2023-12-29T06:15:15;8.02;83.85
66722;SHT31;53633;49.932;10.884;2023-12-29T06:17:43;7.97;83.68
66722;SHT31;53633;49.932;10.884;2023-12-29T06:20:11;7.96;83.54
66722;SHT31;53633;49.932;10.884;2023-12-29T06:22:39;7.96;83.39
66722;SHT31;53633;49.932;10.884;2023-12-29T06:25:12;7.93;83.57
66722;SHT31;53633;49.932;10.884;2023-12-29T06:27:39;7.90;83.89
66722;SHT31;53633;49.932;10.884;2023-12-29T06:30:08;7.89;83.96
66722;SHT31;53633;49.932;10.884;2023-12-29T06:32:36;7.86;84.06
66722;SHT31;53633;49.932;10.884;2023-12-29T06:35:04;7.83;84.26
66722;SHT31;53633;49.932;10.884;2023-12-29T06:37:31;7.75;84.14
66722;SHT31;53633;49.932;10.884;2023-12-29T06:39:58;7.71;84.30
66722;SHT31;53633;49.932;10.884;2023-12-29T06:42:25;7.76;84.23
66722;SHT31;53633;49.932;10.884;2023-12-29T06:44:55;7.71;84.25
66722;SHT31;53633;49.932;10.884;2023-12-29T06:47:23;7.72;84.63
66722;SHT31;53633;49.932;10.884;2023-12-29T06:49:50;7.69;84.78
66722;SHT31;53633;49.932;10.884;2023-12-29T06:52:17;7.69;84.95
66722;SHT31;53633;49.932;10.884;2023-12-29T06:54:45;7.69;85.11
66722;SHT31;53633;49.932;10.884;2023-12-29T06:57:12;7.72;85.24
66722;SHT31;53633;49.932;10.884;2023-12-29T06:59:39;7.75;85.24
66722;SHT31;53633;49.932;10.884;2023-12-29T07:02:05;7.76;85.53
66722;SHT31;53633;49.932;10.884;2023-12-29T07:04:34;7.79;85.52
66722;SHT31;53633;49.932;10.884;2023-12-29T07:07:01;7.81;85.65
66722;SHT31;53633;49.932;10.884;2023-12-29T07:09:32;7.81;85.72
66722;SHT31;53633;49.932;10.884;2023-12-29T07:11:59;7.82;85.82
66722;SHT31;53633;49.932;10.884;2023-12-29T07:17:21;7.92;85.97
66722;SHT31;53633;49.932;10.884;2023-12-29T07:19:49;7.96;86.06
66722;SHT31;53633;49.932;10.884;2023-12-29T07:22:16;8.02;86.04
66722;SHT31;53633;49.932;10.884;2023-12-29T07:24:43;8.10;86.05
66722;SHT31;53633;49.932;10.884;2023-12-29T07:27:10;8.19;85.90
66722;SHT31;53633;49.932;10.884;2023-12-29T07:29:37;8.26;85.78
66722;SHT31;53633;49.932;10.884;2023-12-29T07:32:05;8.31;85.73
66722;SHT31;53633;49.932;10.884;2023-12-29T07:34:32;8.36;85.53
66722;SHT31;53633;49.932;10.884;2023-12-29T07:37:00;8.44;85.13
66722;SHT31;53633;49.932;10.884;2023-12-29T07:39:27;8.50;84.75
66722;SHT31;53633;49.932;10.884;2023-12-29T07:41:54;8.54;84.59
66722;SHT31;53633;49.932;10.884;2023-12-29T07:44:21;8.62;84.43
66722;SHT31;53633;49.932;10.884;2023-12-29T07:46:48;8.67;84.19
66722;SHT31;53633;49.932;10.884;2023-12-29T07:49:15;8.69;84.13
66722;SHT31;53633;49.932;10.884;2023-12-29T07:51:45;8.75;84.07
66722;SHT31;53633;49.932;10.884;2023-12-29T07:54:27;8.78;84.17
66722;SHT31;53633;49.932;10.884;2023-12-29T07:56:53;8.80;84.41
66722;SHT31;53633;49.932;10.884;2023-12-29T07:59:20;8.85;84.36
66722;SHT31;53633;49.932;10.884;2023-12-29T08:01:47;8.92;84.37
66722;SHT31;53633;49.932;10.884;2023-12-29T08:04:14;8.95;84.24
66722;SHT31;53633;49.932;10.884;2023-12-29T08:06:41;8.98;84.10
66722;SHT31;53633;49.932;10.884;2023-12-29T08:09:22;9.02;83.92
66722;SHT31;53633;49.932;10.884;2023-12-29T08:11:50;9.05;83.92
66722;SHT31;53633;49.932;10.884;2023-12-29T08:14:17;9.09;83.92
66722;SHT31;53633;49.932;10.884;2023-12-29T08:16:44;9.13;83.98
66722;SHT31;53633;49.932;10.884;2023-12-29T08:19:11;9.16;83.92
66722;SHT31;53633;49.932;10.884;2023-12-29T08:21:38;9.17;83.83
66722;SHT31;53633;49.932;10.884;2023-12-29T08:24:05;9.19;83.69
66722;SHT31;53633;49.932;10.884;2023-12-29T08:26:32;9.19;83.39
66722;SHT31;53633;49.932;10.884;2023-12-29T08:29:00;9.20;83.55
66722;SHT31;53633;49.932;10.884;2023-12-29T08:31:27;9.22;83.27
66722;SHT31;53633;49.932;10.884;2023-12-29T08:33:54;9.24;83.19
66722;SHT31;53633;49.932;10.884;2023-12-29T08:36:21;9.28;83.03
66722;SHT31;53633;49.932;10.884;2023-12-29T08:38:48;9.33;83.03
66722;SHT31;53633;49.932;10.884;2023-12-29T08:41:15;9.36;83.19
66722;SHT31;53633;49.932;10.884;2023-12-29T08:43:42;9.37;83.26
66722;SHT31;53633;49.932;10.884;2023-12-29T08:46:10;9.37;83.16
66722;SHT31;53633;49.932;10.884;2023-12-29T08:48:37;9.44;82.65
66722;SHT31;53633;49.932;10.884;2023-12-29T08:51:07;9.44;82.47
66722;SHT31;53633;49.932;10.884;2023-12-29T08:53:34;9.48;82.73
66722;SHT31;53633;49.932;10.884;2023-12-29T08:56:05;9.48;82.60
66722;SHT31;53633;49.932;10.884;2023-12-29T08:58:32;9.54;82.60
66722;SHT31;53633;49.932;10.884;2023-12-29T09:00:58;9.57;82.24
66722;SHT31;53633;49.932;10.884;2023-12-29T09:03:27;9.59;82.62
66722;SHT31;53633;49.932;10.884;2023-12-29T09:05:55;9.72;82.57
66722;SHT31;53633;49.932;10.884;2023-12-29T09:08:25;9.81;82.24
66722;SHT31;53633;49.932;10.884;2023-12-29T09:10:51;9.89;82.16
66722;SHT31;53633;49.932;10.884;2023-12-29T09:13:18;10.02;82.13
66722;SHT31;53633;49.932;10.884;2023-12-29T09:15:48;10.05;81.89
66722;SHT31;53633;49.932;10.884;2023-12-29T09:18:19;10.14;81.58
66722;SHT31;53633;49.932;10.884;2023-12-29T09:20:48;10.13;81.12
66722;SHT31;53633;49.932;10.884;2023-12-29T09:23:15;10.14;81.21
66722;SHT31;53633;49.932;10.884;2023-12-29T09:25:42;10.19;81.17
66722;SHT31;53633;49.932;10.884;2023-12-29T09:28:09;10.23;81.23
66722;SHT31;53633;49.932;10.884;2023-12-29T09:30:36;10.29;81.02
66722;SHT31;53633;49.932;10.884;2023-12-29T09:33:03;10.30;80.70
66722;SHT31;53633;49.932;10.884;2023-12-29T09:35:30;10.30;80.74
66722;SHT31;53633;49.932;10.884;2023-12-29T09:37:59;10.23;80.65
66722;SHT31;53633;49.932;10.884;2023-12-29T09:40:26;10.24;80.44
66722;SHT31;53633;49.932;10.884;2023-12-29T09:42:55;10.28;80.41
66722;SHT31;53633;49.932;10.884;2023-12-29T09:45:23;10.19;80.45
66722;SHT31;53633;49.932;10.884;2023-12-29T09:47:51;10.14;80.52
66722;SHT31;53633;49.932;10.884;2023-12-29T09:50:19;10.09;80.37
66722;SHT31;53633;49.932;10.884;2023-12-29T09:52:47;10.06;80.31
66722;SHT31;53633;49.932;10.884;2023-12-29T09:55:16;10.03;80.24
66722;SHT31;53633;49.932;10.884;2023-12-29T09:57:44;10.05;80.13
66722;SHT31;53633;49.932;10.884;2023-12-29T10:02:51;10.20;79.88
66722;SHT31;53633;49.932;10.884;2023-12-29T10:05:18;10.28;79.79
66722;SHT31;53633;49.932;10.884;2023-12-29T10:07:46;10.28;79.39
66722;SHT31;53633;49.932;10.884;2023-12-29T10:10:16;10.30;79.50
66722;SHT31;53633;49.932;10.884;2023-12-29T10:12:44;10.37;79.51
66722;SHT31;53633;49.932;10.884;2023-12-29T10:15:17;10.48;78.98
66722;SHT31;53633;49.932;10.884;2023-12-29T10:17:52;10.44;78.67
66722;SHT31;53633;49.932;10.884;2023-12-29T10:20:36;10.48;78.17
66722;SHT31;53633;49.932;10.884;2023-12-29T10:23:06;10.61;77.25
66722;SHT31;53633;49.932;10.884;2023-12-29T10:25:36;10.64;76.90
66722;SHT31;53633;49.932;10.884;2023-12-29T10:28:03;10.77;76.91
66722;SHT31;53633;49.932;10.884;2023-12-29T10:30:30;10.78;76.55
66722;SHT31;53633;49.932;10.884;2023-12-29T10:33:01;10.78;76.19
66722;SHT31;53633;49.932;10.884;2023-12-29T10:35:30;10.94;75.98
66722;SHT31;53633;49.932;10.884;2023-12-29T10:38:08;11.08;75.32
66722;SHT31;53633;49.932;10.884;2023-12-29T10:40:36;11.22;75.08
66722;SHT31;53633;49.932;10.884;2023-12-29T10:43:03;11.24;74.65
66722;SHT31;53633;49.932;10.884;2023-12-29T10:45:30;11.42;74.25
66722;SHT31;53633;49.932;10.884;2023-12-29T10:47:56;11.42;74.45
66722;SHT31;53633;49.932;10.884;2023-12-29T10:50:26;11.42;74.57
66722;SHT31;53633;49.932;10.884;2023-12-29T10:53:10;11.49;74.28
66722;SHT31;53633;49.932;10.884;2023-12-29T10:55:38;11.42;74.45
66722;SHT31;53633;49.932;10.884;2023-12-29T10:58:05;11.37;74.60
66722;SHT31;53633;49.932;10.884;2023-12-29T11:00:32;11.37;74.71
66722;SHT31;53633;49.932;10.884;2023-12-29T11:02:59;11.30;74.89
66722;SHT31;53633;49.932;10.884;2023-12-29T11:05:27;11.18;74.86
66722;SHT31;53633;49.932;10.884;2023-12-29T11:07:55;11.15;74.89
66722;SHT31;53633;49.932;10.884;2023-12-29T11:10:22;11.11;75.36
66722;SHT31;53633;49.932;10.884;2023-12-29T11:12:51;11.11;75.16
66722;SHT31;53633;49.932;10.884;2023-12-29T11:15:18;11.05;75.25
66722;SHT31;53633;49.932;10.884;2023-12-29T11:17:48;11.02;75.42
66722;SHT31;53633;49.932;10.884;2023-12-29T11:20:17;10.91;76.02
66722;SHT31;53633;49.932;10.884;2023-12-29T11:22:46;10.89;76.20
66722;SHT31;53633;49.932;10.884;2023-12-29T11:25:14;10.92;76.40
66722;SHT31;53633;49.932;10.884;2023-12-29T11:27:42;10.99;76.40
66722;SHT31;53633;49.932;10.884;2023-12-29T11:30:14;11.02;76.08
66722;SHT31;53633;49.932;10.884;2023-12-29T11:32:45;10.94;76.28
66722;SHT31;53633;49.932;10.884;2023-12-29T11:35:17;10.92;76.05
66722;SHT31;53633;49.932;10.884;2023-12-29T11:40:41;10.84;76.50
66722;SHT31;53633;49.932;10.884;2023-12-29T11:43:15;10.78;77.02
66722;SHT31;53633;49.932;10.884;2023-12-29T11:45:43;10.84;76.74
66722;SHT31;53633;49.932;10.884;2023-12-29T11:48:11;10.94;76.88
66722;SHT31;53633;49.932;10.884;2023-12-29T11:50:38;10.94;77.16
66722;SHT31;53633;49.932;10.884;2023-12-29T11:53:06;11.01;76.80
66722;SHT31;53633;49.932;10.884;2023-12-29T11:55:36;10.98;76.87
66722;SHT31;53633;49.932;10.884;2023-12-29T11:58:03;11.02;77.07
66722;SHT31;53633;49.932;10.884;2023-12-29T12:00:45;11.05;77.42
66722;SHT31;53633;49.932;10.884;2023-12-29T12:03:17;11.06;77.38
66722;SHT31;53633;49.932;10.884;2023-12-29T12:05:45;11.04;77.38
66722;SHT31;53633;49.932;10.884;2023-12-29T12:08:26;11.06;77.38
66722;SHT31;53633;49.932;10.884;2023-12-29T12:10:53;11.08;77.49
66722;SHT31;53633;49.932;10.884;2023-12-29T12:13:44;10.98;76.90
66722;SHT31;53633;49.932;10.884;2023-12-29T12:19:13;10.96;77.27
66722;SHT31;53633;49.932;10.884;2023-12-29T12:21:40;10.95;76.94
66722;SHT31;53633;49.932;10.884;2023-12-29T12:24:08;10.91;77.34
66722;SHT31;53633;49.932;10.884;2023-12-29T12:26:35;10.95;76.97
66722;SHT31;53633;49.932;10.884;2023-12-29T12:29:02;10.95;76.39
66722;SHT31;53633;49.932;10.884;2023-12-29T12:31:28;10.92;76.54
66722;SHT31;53633;49.932;10.884;2023-12-29T12:33:55;10.96;76.62
66722;SHT31;53633;49.932;10.884;2023-12-29T12:36:24;10.92;76.36
66722;SHT31;53633;49.932;10.884;2023-12-29T12:38:52;10.91;76.71
66722;SHT31;53633;49.932;10.884;2023-12-29T12:41:19;10.95;76.41
66722;SHT31;53633;49.932;10.884;2023-12-29T12:44:03;10.94;76.66
66722;SHT31;53633;49.932;10.884;2023-12-29T12:46:33;10.94;76.67
66722;SHT31;53633;49.932;10.884;2023-12-29T12:49:00;10.86;76.84
66722;SHT31;53633;49.932;10.884;2023-12-29T12:51:29;10.82;76.89
66722;SHT31;53633;49.932;10.884;2023-12-29T12:53:57;10.81;77.30
66722;SHT31;53633;49.932;10.884;2023-12-29T12:56:24;10.84;77.33
66722;SHT31;53633;49.932;10.884;2023-12-29T12:58:51;10.82;77.32
66722;SHT31;53633;49.932;10.884;2023-12-29T13:01:17;10.81;77.65
66722;SHT31;53633;49.932;10.884;2023-12-29T13:03:44;10.82;77.33
66722;SHT31;53633;49.932;10.884;2023-12-29T13:06:12;10.79;77.43
66722;SHT31;53633;49.932;10.884;2023-12-29T13:08:41;10.79;77.39
66722;SHT31;53633;49.932;10.884;2023-12-29T13:11:09;10.77;77.67
66722;SHT31;53633;49.932;10.884;2023-12-29T13:13:38;10.75;77.49
66722;SHT31;53633;49.932;10.884;2023-12-29T13:16:05;10.74;77.15
66722;SHT31;53633;49.932;10.884;2023-12-29T13:18:32;10.79;77.27
66722;SHT31;53633;49.932;10.884;2023-12-29T13:21:00;10.77;77.30
66722;SHT31;53633;49.932;10.884;2023-12-29T13:23:27;10.72;77.36
66722;SHT31;53633;49.932;10.884;2023-12-29T13:25:57;10.71;77.35
66722;SHT31;53633;49.932;10.884;2023-12-29T13:28:25;10.72;77.23
66722;SHT31;53633;49.932;10.884;2023-12-29T13:30:52;10.74;77.27
66722;SHT31;53633;49.932;10.884;2023-12-29T13:33:30;10.75;77.36
66722;SHT31;53633;49.932;10.884;2023-12-29T13:36:06;10.72;77.33
66722;SHT31;53633;49.932;10.884;2023-12-29T13:38:38;10.72;77.39
66722;SHT31;53633;49.932;10.884;2023-12-29T13:41:10;10.69;77.04
66722;SHT31;53633;49.932;10.884;2023-12-29T13:43:42;10.68;77.16
66722;SHT31;53633;49.932;10.884;2023-12-29T13:46:09;10.72;77.08
66722;SHT31;53633;49.932;10.884;2023-12-29T13:48:40;10.71;77.26
66722;SHT31;53633;49.932;10.884;2023-12-29T13:51:07;10.69;77.29
66722;SHT31;53633;49.932;10.884;2023-12-29T13:53:35;10.69;77.47
66722;SHT31;53633;49.932;10.884;2023-12-29T13:56:06;10.67;77.52
66722;SHT31;53633;49.932;10.884;2023-12-29T13:58:34;10.71;77.51
66722;SHT31;53633;49.932;10.884;2023-12-29T14:01:04;10.65;77.52
66722;SHT31;53633;49.932;10.884;2023-12-29T14:03:38;10.69;77.77
66722;SHT31;53633;49.932;10.884;2023-12-29T14:06:08;10.71;77.68
66722;SHT31;53633;49.932;10.884;2023-12-29T14:08:39;10.71;77.61
66722;SHT31;53633;49.932;10.884;2023-12-29T14:11:07;10.68;77.44
66722;SHT31;53633;49.932;10.884;2023-12-29T14:13:35;10.74;77.36
66722;SHT31;53633;49.932;10.884;2023-12-29T14:16:02;10.75;77.33
66722;SHT31;53633;49.932;10.884;2023-12-29T14:18:52;10.75;77.28
66722;SHT31;53633;49.932;10.884;2023-12-29T14:21:23;10.75;77.14
66722;SHT31;53633;49.932;10.884;2023-12-29T14:24:09;10.77;77.40
66722;SHT31;53633;49.932;10.884;2023-12-29T14:26:37;10.75;77.46
66722;SHT31;53633;49.932;10.884;2023-12-29T14:29:06;10.77;77.59
66722;SHT31;53633;49.932;10.884;2023-12-29T14:31:35;10.78;77.38
66722;SHT31;53633;49.932;10.884;2023-12-29T14:34:02;10.77;77.33
66722;SHT31;53633;49.932;10.884;2023-12-29T14:36:30;10.81;77.07
66722;SHT31;53633;49.932;10.884;2023-12-29T14:38:57;10.81;76.94
66722;SHT31;53633;49.932;10.884;2023-12-29T14:41:24;10.81;77.05
66722;SHT31;53633;49.932;10.884;2023-12-29T14:43:50;10.79;77.10
66722;SHT31;53633;49.932;10.884;2023-12-29T14:46:19;10.77;76.82
66722;SHT31;53633;49.932;10.884;2023-12-29T14:48:48;10.77;76.80
66722;SHT31;53633;49.932;10.884;2023-12-29T14:51:15;10.74;76.95
66722;SHT31;53633;49.932;10.884;2023-12-29T14:53:43;10.72;76.88
66722;SHT31;53633;49.932;10.884;2023-12-29T14:56:10;10.69;77.05
66722;SHT31;53633;49.932;10.884;2023-12-29T14:58:37;10.72;77.23
66722;SHT31;53633;49.932;10.884;2023-12-29T15:01:04;10.65;77.33
66722;SHT31;53633;49.932;10.884;2023-12-29T15:03:32;10.60;77.46
66722;SHT31;53633;49.932;10.884;2023-12-29T15:05:59;10.60;77.47
66722;SHT31;53633;49.932;10.884;2023-12-29T15:08:26;10.57;77.50
66722;SHT31;53633;49.932;10.884;2023-12-29T15:10:53;10.58;77.58
66722;SHT31;53633;49.932;10.884;2023-12-29T15:13:20;10.58;77.64
66722;SHT31;53633;49.932;10.884;2023-12-29T15:15:46;10.60;77.65
66722;SHT31;53633;49.932;10.884;2023-12-29T15:18:13;10.56;77.89
66722;SHT31;53633;49.932;10.884;2023-12-29T15:20:41;10.53;78.00
66722;SHT31;53633;49.932;10.884;2023-12-29T15:23:08;10.48;78.30
66722;SHT31;53633;49.932;10.884;2023-12-29T15:25:35;10.48;78.37
66722;SHT31;53633;49.932;10.884;2023-12-29T15:28:02;10.46;78.57
66722;SHT31;53633;49.932;10.884;2023-12-29T15:30:29;10.46;78.55
66722;SHT31;53633;49.932;10.884;2023-12-29T15:32:56;10.44;78.59
66722;SHT31;53633;49.932;10.884;2023-12-29T15:35:36;10.44;78.39
66722;SHT31;53633;49.932;10.884;2023-12-29T15:38:05;10.43;78.51
66722;SHT31;53633;49.932;10.884;2023-12-29T15:40:31;10.46;78.47
66722;SHT31;53633;49.932;10.884;2023-12-29T15:42:58;10.43;78.51
66722;SHT31;53633;49.932;10.884;2023-12-29T15:45:25;10.44;78.61
66722;SHT31;53633;49.932;10.884;2023-12-29T15:47:52;10.50;78.49
66722;SHT31;53633;49.932;10.884;2023-12-29T15:50:19;10.44;78.52